Nevada, Missouri
Current Conditions -  °F | °C
As of 2:55 PM on Thursday 20 Nov 2014 (Local Time) from KPTS Reporting Station
Clear Clear  
Wind Chill: 51°   Ceiling: Unl
Heat Index: 51°   Visibility: 10mi
Dew Point: 30°   Wind: 10mph
Humidity: 44%   Direction: 80°E
Pressure: 30.12"   Gusts: NA
Location:  37.84°N, 94.36°W
Report Text: KPTS 202055Z AUTO 08009KT 10SM CLR 11/M01 A3012 RMK AO2 T01051013
Loading
Personal Weather Stations






























Interactive Weather Map New forecast layout! Learn more

10-Day Weather Forecast

Advertisements
Track Severe Weather on mobile